Time;durP1;ratioP1;P1;durP2;ratioP2;P2;SDS_P1;SDS_P2;PMS_P1;PMS_P2;Temp;Humidity;BMP_temperature;BMP_pressure;BME280_temperature;BME280_humidity;BME280_pressure;Samples;Min_cycle;Max_cycle;Signal;HPM_P1;HPM_P2
2023/01/30 00:00:30;;;;;;;14.63;9.93;;;;;;;4.27;100.00;98520.75;5051844;28;20182;-62
2023/01/30 00:02:55;;;;;;;13.50;9.85;;;;;;;4.10;99.97;98479.69;5052207;28;20201;-62
2023/01/30 00:05:21;;;;;;;14.27;9.43;;;;;;;4.33;96.74;98501.75;5051764;28;20182;-62
2023/01/30 00:07:46;;;;;;;16.00;10.55;;;;;;;4.59;94.40;98527.09;5051786;28;20289;-62
2023/01/30 00:10:12;;;;;;;13.63;9.32;;;;;;;4.57;90.68;98514.38;5051648;28;20664;-62
2023/01/30 00:12:37;;;;;;;13.50;8.90;;;;;;;4.49;87.26;98480.53;5051461;28;20193;-62
2023/01/30 00:15:03;;;;;;;13.80;8.70;;;;;;;4.79;86.60;98529.66;5051793;28;20190;-62
2023/01/30 00:17:29;;;;;;;13.40;9.00;;;;;;;4.53;87.46;98481.25;5051339;28;20629;-62
2023/01/30 00:19:54;;;;;;;11.02;8.70;;;;;;;4.64;86.02;98490.13;5052088;28;20225;-62
2023/01/30 00:22:19;;;;;;;13.57;9.75;;;;;;;4.74;84.93;98511.06;5051291;28;20224;-62
2023/01/30 00:24:45;;;;;;;11.50;8.75;;;;;;;4.57;83.39;98469.97;5051804;28;20239;-62
2023/01/30 00:27:10;;;;;;;12.85;8.90;;;;;;;4.65;83.17;98478.97;5051373;28;20228;-62
2023/01/30 00:29:40;;;;;;;13.80;9.38;;;;;;;4.63;82.29;98478.22;5051209;28;20691;-62
2023/01/30 00:32:05;;;;;;;15.27;9.68;;;;;;;4.55;83.77;98487.97;5052788;28;20185;-62
2023/01/30 00:34:31;;;;;;;14.02;9.20;;;;;;;4.89;83.20;98530.91;5053427;28;20231;-62
2023/01/30 00:36:57;;;;;;;13.45;8.68;;;;;;;4.47;83.90;98477.22;5053914;28;20189;-61
2023/01/30 00:39:22;;;;;;;14.65;9.50;;;;;;;4.75;83.84;98526.38;5053285;28;20640;-62
2023/01/30 00:47:15;;;;;;;12.13;8.48;;;;;;;4.43;83.80;98464.63;5053413;28;20165;-62
2023/01/30 00:49:41;;;;;;;12.38;8.20;;;;;;;4.35;83.49;98467.50;5053198;28;20555;-62
2023/01/30 00:52:06;;;;;;;13.25;9.27;;;;;;;4.53;83.78;98492.34;5053092;28;20184;-62
2023/01/30 00:54:32;;;;;;;15.43;10.27;;;;;;;4.46;84.07;98485.81;5050815;28;20785;-62
2023/01/30 00:56:58;;;;;;;14.30;9.70;;;;;;;4.71;83.65;98521.44;5050877;28;20193;-62
2023/01/30 00:59:23;;;;;;;13.38;8.80;;;;;;;4.62;84.70;98503.91;5050635;28;20189;-62
2023/01/30 01:01:48;;;;;;;16.42;9.50;;;;;;;4.75;82.92;98510.16;5050627;28;20173;-62
2023/01/30 01:04:14;;;;;;;14.60;9.45;;;;;;;4.77;82.82;98522.00;5050613;28;20581;-62
2023/01/30 01:06:39;;;;;;;15.00;10.23;;;;;;;4.15;83.78;98418.03;5050614;28;20268;-62
2023/01/30 01:09:05;;;;;;;15.60;9.88;;;;;;;4.73;84.89;98524.78;5050548;28;20718;-62
2023/01/30 01:11:31;;;;;;;15.25;10.02;;;;;;;4.89;83.43;98520.66;5050911;28;20213;-62
2023/01/30 01:13:59;;;;;;;13.82;8.75;;;;;;;4.76;82.79;98509.25;5050428;28;20252;-62
2023/01/30 01:16:26;;;;;;;14.82;9.55;;;;;;;4.45;83.33;98458.53;5050843;28;20208;-61
2023/01/30 01:18:52;;;;;;;13.13;8.85;;;;;;;4.81;83.12;98513.31;5050273;28;20741;-61
2023/01/30 01:21:18;;;;;;;15.20;9.23;;;;;;;4.43;83.57;98455.19;5050471;28;20177;-61
2023/01/30 01:23:49;;;;;;;10.30;7.40;;;;;;;4.54;82.74;98452.19;5050152;28;20675;-61
2023/01/30 01:26:14;;;;;;;12.07;8.27;;;;;;;4.61;80.59;98444.13;5050684;28;20664;-61
2023/01/30 01:28:40;;;;;;;11.32;8.07;;;;;;;4.36;78.03;98412.81;5050046;28;20205;-62
2023/01/30 01:31:14;;;;;;;8.82;6.60;;;;;;;4.91;73.48;98508.59;5050585;28;20200;-61
2023/01/30 01:33:39;;;;;;;9.23;6.20;;;;;;;4.58;73.86;98464.78;5050373;28;20730;-61
2023/01/30 01:36:06;;;;;;;8.23;6.20;;;;;;;4.83;72.86;98511.50;5051781;28;20288;-61
2023/01/30 01:38:31;;;;;;;7.97;6.40;;;;;;;4.83;72.81;98501.25;5052097;28;20315;-61
2023/01/30 01:41:06;;;;;;;8.55;6.40;;;;;;;4.48;72.42;98450.72;5052917;28;20245;-61
2023/01/30 01:43:35;;;;;;;8.65;6.50;;;;;;;4.79;72.72;98499.69;5052663;28;20208;-61
2023/01/30 01:46:19;;;;;;;8.13;5.97;;;;;;;4.16;72.42;98405.19;5051981;28;20181;-61
2023/01/30 01:48:50;;;;;;;8.00;5.90;;;;;;;4.62;72.41;98497.03;5052998;28;20549;-61
2023/01/30 01:51:24;;;;;;;8.18;5.72;;;;;;;4.68;71.90;98499.38;5053137;28;20170;-61
2023/01/30 01:53:54;;;;;;;10.93;6.47;;;;;;;4.54;72.49;98488.88;5058844;28;20248;-61
2023/01/30 01:56:21;;;;;;;8.15;6.22;;;;;;;4.53;73.05;98489.78;5058933;28;20173;-61
2023/01/30 01:58:58;;;;;;;10.73;6.43;;;;;;;4.08;72.76;98406.41;5059586;28;20509;-62
2023/01/30 02:01:23;;;;;;;8.95;6.32;;;;;;;4.58;72.19;98494.69;5059396;28;20180;-61
2023/01/30 02:03:55;;;;;;;12.48;7.07;;;;;;;4.30;72.66;98459.19;5059542;28;20177;-62
2023/01/30 02:06:21;;;;;;;9.07;6.45;;;;;;;4.17;73.34;98437.56;5059132;28;20170;-61
2023/01/30 02:08:53;;;;;;;13.02;7.05;;;;;;;4.50;73.18;98482.19;5059159;28;20201;-61
2023/01/30 02:11:36;;;;;;;9.70;6.75;;;;;;;4.62;72.85;98497.03;5059034;28;20170;-62
2023/01/30 02:14:02;;;;;;;12.10;7.38;;;;;;;4.37;73.40;98460.59;5059280;28;20244;-61
2023/01/30 02:16:27;;;;;;;10.30;7.00;;;;;;;4.53;74.25;98497.47;5058624;28;20184;-61
2023/01/30 02:18:53;;;;;;;7.88;6.63;;;;;;;4.25;73.35;98429.56;5059224;28;20181;-61
2023/01/30 02:21:28;;;;;;;11.32;6.80;;;;;;;4.55;74.12;98498.22;5058592;28;20177;-62
2023/01/30 02:24:11;;;;;;;9.00;7.13;;;;;;;4.62;74.11;98491.91;5058632;28;20176;-61
2023/01/30 02:27:02;;;;;;;11.05;7.40;;;;;;;4.64;73.30;98489.28;5058939;28;20178;-62
2023/01/30 02:30:14;;;;;;;10.93;7.00;;;;;;;4.63;74.00;98498.72;5059224;28;20193;-61
2023/01/30 02:33:04;;;;;;;10.90;7.05;;;;;;;4.56;74.13;98492.19;5056343;28;20607;-61
2023/01/30 02:35:54;;;;;;;11.13;6.70;;;;;;;4.58;73.88;98487.84;5017158;28;20605;-61
2023/01/30 02:38:20;;;;;;;11.88;7.32;;;;;;;4.62;73.72;98483.41;5017199;28;20199;-61
2023/01/30 02:41:20;;;;;;;10.70;7.30;;;;;;;4.64;73.99;98485.00;5016904;28;20209;-61
2023/01/30 02:43:49;;;;;;;10.30;7.75;;;;;;;4.62;74.39;98491.91;5016735;28;20253;-62
2023/01/30 02:46:19;;;;;;;10.77;7.22;;;;;;;4.54;74.23;98470.94;5016587;28;20242;-62
2023/01/30 02:48:54;;;;;;;11.27;7.82;;;;;;;4.54;75.08;98470.94;5016942;28;20213;-61
2023/01/30 02:51:24;;;;;;;14.48;7.75;;;;;;;4.51;74.55;98473.66;5016484;28;20191;-61
2023/01/30 02:53:50;;;;;;;12.43;7.10;;;;;;;4.22;75.05;98425.41;5016611;28;20175;-61
2023/01/30 02:56:16;;;;;;;11.80;8.07;;;;;;;4.53;74.94;98482.09;5016635;28;20537;-61
2023/01/30 02:58:47;;;;;;;11.75;7.68;;;;;;;4.33;74.17;98440.28;5016730;28;20274;-61
2023/01/30 03:01:31;;;;;;;12.07;6.85;;;;;;;4.49;74.66;98493.34;5016273;28;20670;-61
2023/01/30 03:04:07;;;;;;;13.18;8.07;;;;;;;4.38;75.58;98485.28;5027692;28;20649;-61
2023/01/30 03:06:48;;;;;;;17.15;8.13;;;;;;;4.41;76.46;98487.75;5044620;28;20189;-61
2023/01/30 03:09:29;;;;;;;13.27;8.23;;;;;;;4.10;75.95;98420.81;5054665;28;20205;-61
2023/01/30 03:12:07;;;;;;;15.40;8.60;;;;;;;4.42;75.43;98483.44;5054973;28;20166;-61
2023/01/30 03:14:48;;;;;;;13.13;8.13;;;;;;;3.89;76.32;98391.00;5055245;28;20230;-61
2023/01/30 03:17:17;;;;;;;16.20;8.32;;;;;;;4.15;75.80;98429.09;5055461;28;20174;-61
2023/01/30 03:19:43;;;;;;;15.23;9.38;;;;;;;4.11;75.97;98421.63;5055152;28;20178;-61
2023/01/30 03:22:08;;;;;;;14.02;8.75;;;;;;;4.41;77.11;98490.28;5055018;28;20667;-61
2023/01/30 03:24:34;;;;;;;16.98;9.90;;;;;;;4.15;77.49;98418.84;5054678;28;20663;-61
2023/01/30 03:27:06;;;;;;;16.08;9.90;;;;;;;4.45;77.40;98453.41;5055240;28;20199;-62
2023/01/30 03:29:33;;;;;;;13.82;8.70;;;;;;;4.32;76.47;98426.66;5055240;28;20557;-61
2023/01/30 03:31:59;;;;;;;14.82;9.05;;;;;;;4.24;75.88;98398.00;5054615;28;20174;-61
2023/01/30 03:34:24;;;;;;;12.82;8.80;;;;;;;4.30;75.59;98407.13;5054573;28;20184;-61
2023/01/30 03:36:50;;;;;;;12.25;8.07;;;;;;;4.47;75.23;98446.50;5054699;28;20224;-61
2023/01/30 03:39:15;;;;;;;14.20;8.60;;;;;;;4.49;75.90;98452.38;5054146;28;20648;-61
2023/01/30 03:41:41;;;;;;;14.38;9.82;;;;;;;3.83;76.48;98363.09;5054179;28;20213;-61
2023/01/30 03:44:06;;;;;;;13.52;9.40;;;;;;;4.27;76.13;98407.28;5054354;28;20170;-61
2023/01/30 03:46:32;;;;;;;13.07;8.68;;;;;;;4.44;76.63;98444.03;5054360;28;20182;-61
2023/01/30 03:48:57;;;;;;;13.55;9.48;;;;;;;4.19;76.00;98399.91;5053940;28;20255;-61
2023/01/30 03:51:22;;;;;;;15.32;9.68;;;;;;;3.80;76.85;98355.53;5054206;28;20213;-62
2023/01/30 03:53:48;;;;;;;14.60;9.38;;;;;;;4.35;77.72;98451.28;5054706;28;20245;-61
2023/01/30 03:56:13;;;;;;;12.95;9.13;;;;;;;4.39;78.09;98453.69;5054130;28;20613;-62
2023/01/30 03:58:38;;;;;;;15.13;9.40;;;;;;;4.44;78.40;98456.84;5054153;28;20254;-62
2023/01/30 04:01:04;;;;;;;13.52;8.32;;;;;;;4.37;78.10;98437.53;5054299;28;20637;-61
2023/01/30 04:03:29;;;;;;;12.48;7.97;;;;;;;4.16;76.56;98405.19;5053719;28;20180;-61
2023/01/30 04:05:55;;;;;;;14.43;9.10;;;;;;;4.43;77.30;98447.50;5053999;28;20204;-61
2023/01/30 04:08:20;;;;;;;12.48;8.45;;;;;;;4.35;75.46;98421.41;5053806;28;20197;-61
2023/01/30 04:10:45;;;;;;;14.63;9.05;;;;;;;4.17;74.53;98376.13;5053593;28;20173;-62
2023/01/30 04:13:11;;;;;;;14.95;9.90;;;;;;;4.36;74.45;98404.28;5053809;28;20209;-61
2023/01/30 04:15:36;;;;;;;12.82;8.38;;;;;;;4.45;74.10;98447.44;5053645;28;20239;-61
2023/01/30 04:18:02;;;;;;;14.98;9.00;;;;;;;4.31;75.33;98435.22;5053787;28;20185;-61
2023/01/30 04:20:27;;;;;;;14.13;8.55;;;;;;;4.19;76.13;98427.28;5053672;28;20584;-61
2023/01/30 04:22:54;;;;;;;13.02;9.50;;;;;;;4.28;75.53;98450.75;5054407;28;20173;-61
2023/01/30 04:25:20;;;;;;;17.42;9.77;;;;;;;3.93;75.43;98396.81;5053866;28;20185;-61
2023/01/30 04:27:45;;;;;;;14.82;8.82;;;;;;;4.15;75.15;98426.53;5053994;28;20193;-61
2023/01/30 04:30:11;;;;;;;12.75;8.43;;;;;;;3.86;75.25;98388.56;5053469;28;20252;-61
2023/01/30 04:32:36;;;;;;;15.93;8.40;;;;;;;3.98;75.01;98395.72;5053453;28;20613;-61
2023/01/30 04:35:02;;;;;;;14.32;8.52;;;;;;;4.26;74.66;98446.59;5053464;28;20174;-61
2023/01/30 04:37:27;;;;;;;11.85;8.77;;;;;;;3.85;74.52;98389.44;5053098;28;20190;-61
2023/01/30 04:39:52;;;;;;;11.00;7.68;;;;;;;3.94;75.72;98432.59;5051115;28;20223;-61
2023/01/30 04:42:18;;;;;;;13.18;8.85;;;;;;;4.04;76.34;98446.66;5051698;28;20672;-61
2023/01/30 04:44:43;;;;;;;14.10;8.82;;;;;;;3.67;76.65;98392.78;5051077;28;20204;-61
2023/01/30 04:47:09;;;;;;;16.30;9.45;;;;;;;3.96;76.77;98432.53;5050794;28;20616;-61
2023/01/30 04:49:34;;;;;;;13.68;8.15;;;;;;;4.02;77.44;98447.63;5050891;28;20223;-61
2023/01/30 04:51:59;;;;;;;13.32;8.65;;;;;;;3.78;76.06;98395.72;5050717;28;20177;-61
2023/01/30 04:54:25;;;;;;;14.45;9.00;;;;;;;4.15;76.39;98451.34;5050761;28;20653;-61
2023/01/30 04:56:50;;;;;;;11.55;8.18;;;;;;;3.84;76.31;98398.03;5050616;28;20664;-61
2023/01/30 04:59:16;;;;;;;13.15;8.93;;;;;;;4.17;76.05;98454.66;5050605;28;20252;-61
2023/01/30 05:01:41;;;;;;;12.48;8.98;;;;;;;4.16;75.73;98442.75;5050555;28;20268;-61
2023/01/30 05:04:07;;;;;;;11.57;8.52;;;;;;;3.95;74.27;98395.00;5050788;28;20185;-61
2023/01/30 05:06:34;;;;;;;12.50;7.75;;;;;;;3.81;73.83;98387.09;5050770;28;20189;-61
2023/01/30 05:09:00;;;;;;;14.02;8.30;;;;;;;3.85;74.37;98404.81;5050418;28;20201;-61
2023/01/30 05:11:27;;;;;;;12.45;7.93;;;;;;;3.86;74.36;98403.09;5052045;28;20192;-61
2023/01/30 05:13:53;;;;;;;11.60;8.20;;;;;;;4.12;73.96;98449.72;5052659;28;20264;-61
2023/01/30 05:16:20;;;;;;;11.50;7.28;;;;;;;4.09;73.68;98462.66;5052365;28;20201;-61
2023/01/30 05:18:45;;;;;;;15.32;8.55;;;;;;;4.10;73.81;98459.22;5052598;28;20182;-61
2023/01/30 05:21:24;;;;;;;12.15;8.38;;;;;;;3.99;74.10;98448.59;5053104;28;20174;-61
2023/01/30 05:23:51;;;;;;;13.05;8.40;;;;;;;4.06;74.82;98465.34;5053175;28;20170;-61
2023/01/30 05:26:17;;;;;;;15.10;8.82;;;;;;;4.04;74.37;98461.19;5052046;28;20236;-61
2023/01/30 05:28:43;;;;;;;11.48;8.35;;;;;;;4.11;74.10;98463.44;5052377;28;20613;-61
2023/01/30 05:31:11;;;;;;;13.32;9.02;;;;;;;4.06;74.85;98462.78;5053151;28;20181;-61
2023/01/30 05:33:37;;;;;;;12.63;8.52;;;;;;;3.99;74.24;98452.84;5052474;28;20260;-61
2023/01/30 05:36:04;;;;;;;13.43;9.27;;;;;;;3.82;73.79;98420.31;5052492;28;20564;-61
2023/01/30 05:38:32;;;;;;;13.43;9.23;;;;;;;3.80;73.48;98405.91;5052411;28;20544;-61
2023/01/30 05:41:05;;;;;;;16.02;8.60;;;;;;;4.01;73.37;98440.81;5052258;28;20170;-61
2023/01/30 05:43:32;;;;;;;15.13;9.50;;;;;;;3.93;74.39;98443.72;5052652;28;20181;-61
2023/01/30 05:45:59;;;;;;;16.55;10.10;;;;;;;3.88;73.72;98444.78;5053093;28;20541;-61
2023/01/30 05:48:25;;;;;;;13.43;9.15;;;;;;;3.88;73.61;98440.53;5051826;28;20197;-61
2023/01/30 05:50:53;;;;;;;15.95;10.07;;;;;;;3.89;73.98;98441.34;5052190;28;20272;-61
2023/01/30 05:53:19;;;;;;;18.90;10.10;;;;;;;3.89;74.99;98444.75;5052482;28;20242;-61
2023/01/30 05:55:45;;;;;;;15.40;9.38;;;;;;;3.95;73.91;98448.75;5052179;28;20178;-61
2023/01/30 05:58:11;;;;;;;16.42;9.65;;;;;;;3.67;73.66;98389.41;5052191;28;20180;-61
2023/01/30 06:00:36;;;;;;;16.50;10.70;;;;;;;3.77;73.42;98416.25;5052156;28;20663;-61
2023/01/30 06:03:02;;;;;;;16.25;10.20;;;;;;;3.68;73.31;98399.56;5052334;28;20245;-61
2023/01/30 06:05:27;;;;;;;18.75;10.25;;;;;;;3.80;73.75;98426.38;5052632;28;20177;-61
2023/01/30 06:07:52;;;;;;;16.35;9.10;;;;;;;3.58;73.04;98411.09;5051994;28;20209;-61
2023/01/30 06:10:18;;;;;;;16.00;9.55;;;;;;;3.88;73.38;98455.03;5052101;28;20178;-61
2023/01/30 06:12:43;;;;;;;15.80;9.48;;;;;;;3.63;73.92;98423.69;5052106;28;20185;-61
2023/01/30 06:15:09;;;;;;;12.98;8.50;;;;;;;3.51;73.74;98394.28;5052070;28;20577;-61
2023/01/30 06:17:35;;;;;;;14.77;9.15;;;;;;;3.94;73.52;98465.00;5052554;28;20185;-61
2023/01/30 06:20:00;;;;;;;12.27;8.63;;;;;;;4.05;73.58;98467.97;5051924;28;20521;-61
2023/01/30 06:22:25;;;;;;;13.68;8.93;;;;;;;3.78;72.78;98411.09;5052041;28;20178;-62
2023/01/30 06:24:51;;;;;;;12.23;8.55;;;;;;;3.81;72.62;98417.78;5051836;28;20178;-62
2023/01/30 06:27:16;;;;;;;14.40;8.77;;;;;;;3.81;72.23;98418.66;5051949;28;20265;-61
2023/01/30 06:29:41;;;;;;;14.85;10.20;;;;;;;4.04;72.23;98456.06;5052642;28;20263;-61
2023/01/30 06:32:08;;;;;;;13.57;9.52;;;;;;;3.96;73.25;98447.88;5051891;28;20564;-61
2023/01/30 06:34:34;;;;;;;16.67;9.52;;;;;;;4.05;73.24;98468.81;5051807;28;20178;-61
2023/01/30 06:36:59;;;;;;;15.40;9.48;;;;;;;3.85;73.18;98415.03;5052034;28;20197;-61
2023/01/30 06:39:24;;;;;;;14.15;9.10;;;;;;;4.14;72.72;98473.53;5054161;28;20181;-62
2023/01/30 06:41:50;;;;;;;13.20;8.63;;;;;;;4.06;73.23;98465.34;5055594;28;20189;-62
2023/01/30 06:44:15;;;;;;;16.88;10.20;;;;;;;3.77;73.56;98421.38;5055581;28;20203;-61
2023/01/30 06:46:40;;;;;;;16.42;9.27;;;;;;;4.03;73.77;98475.69;5055485;28;20173;-62
2023/01/30 06:49:06;;;;;;;13.48;8.68;;;;;;;3.97;74.95;98467.47;5055363;28;20235;-62
2023/01/30 06:51:31;;;;;;;17.90;9.45;;;;;;;3.64;75.74;98426.19;5056216;28;20182;-62
2023/01/30 06:53:57;;;;;;;14.45;9.48;;;;;;;3.45;75.58;98398.84;5055652;28;20323;-62
2023/01/30 06:56:22;;;;;;;16.23;8.95;;;;;;;3.87;76.75;98461.91;5055275;28;20648;-62
2023/01/30 06:58:47;;;;;;;13.52;8.98;;;;;;;3.84;78.26;98486.78;5055831;28;20181;-62
2023/01/30 07:01:13;;;;;;;16.33;9.25;;;;;;;3.67;77.80;98449.06;5055177;28;20261;-62
2023/01/30 07:03:39;;;;;;;14.77;8.55;;;;;;;3.85;78.27;98480.75;5055410;28;20174;-62
2023/01/30 07:06:04;;;;;;;13.73;8.68;;;;;;;3.43;78.73;98411.69;5055348;28;20205;-61
2023/01/30 07:08:29;;;;;;;11.40;8.80;;;;;;;3.81;78.68;98474.09;5055278;28;20200;-62
2023/01/30 07:10:55;;;;;;;14.73;9.85;;;;;;;3.49;79.69;98416.56;5055089;28;20212;-62
2023/01/30 07:13:20;;;;;;;17.98;10.13;;;;;;;3.50;78.86;98413.09;5052755;28;20185;-62
2023/01/30 07:15:46;;;;;;;14.95;9.68;;;;;;;3.74;79.43;98447.91;5053157;28;20581;-62
2023/01/30 07:18:11;;;;;;;17.15;10.77;;;;;;;3.86;79.50;98478.13;5052708;28;20193;-61
2023/01/30 07:20:37;;;;;;;23.60;11.35;;;;;;;3.52;80.07;98413.88;5052859;28;20222;-61
2023/01/30 07:23:03;;;;;;;25.42;13.73;;;;;;;3.70;79.63;98446.41;5052495;28;20185;-61
2023/01/30 07:25:29;;;;;;;20.23;10.80;;;;;;;3.78;80.46;98464.81;5052889;28;20263;-61
2023/01/30 07:27:59;;;;;;;13.50;9.52;;;;;;;3.78;79.96;98469.94;5052382;28;20285;-62
2023/01/30 07:30:27;;;;;;;17.45;11.00;;;;;;;3.75;80.41;98470.06;5052712;28;20174;-61
2023/01/30 07:32:56;;;;;;;12.55;8.68;;;;;;;3.42;79.82;98419.41;5052265;28;20240;-62
2023/01/30 07:35:23;;;;;;;15.52;7.80;;;;;;;3.74;79.66;98465.00;5053012;28;20185;-62
2023/01/30 07:37:49;;;;;;;14.32;8.50;;;;;;;3.91;80.15;98468.53;5052081;28;20194;-62
2023/01/30 07:40:19;;;;;;;15.63;9.25;;;;;;;3.90;79.82;98469.44;5052126;28;20590;-61
2023/01/30 07:42:58;;;;;;;11.40;8.68;;;;;;;3.62;79.26;98412.59;5052147;28;20304;-62
2023/01/30 07:45:24;;;;;;;12.27;8.48;;;;;;;3.76;78.28;98441.03;5054216;28;20220;-62
2023/01/30 07:47:49;;;;;;;10.00;7.88;;;;;;;3.79;78.52;98474.16;5054800;28;20227;-62
2023/01/30 07:50:15;;;;;;;12.15;7.82;;;;;;;3.50;79.18;98414.84;5053812;28;20247;-61
2023/01/30 07:52:41;;;;;;;12.68;8.38;;;;;;;3.44;79.38;98413.34;5054542;28;20178;-62
2023/01/30 07:55:06;;;;;;;12.00;8.48;;;;;;;3.67;78.82;98451.63;5053951;28;20177;-61
2023/01/30 07:57:32;;;;;;;14.82;8.80;;;;;;;3.73;79.38;98461.59;5054189;28;20181;-62
2023/01/30 07:59:57;;;;;;;13.35;8.52;;;;;;;3.78;78.52;98459.69;5054165;28;20185;-62
2023/01/30 08:02:23;;;;;;;11.60;7.18;;;;;;;3.76;78.69;98464.06;5054042;28;20181;-62
2023/01/30 08:04:48;;;;;;;12.73;8.55;;;;;;;3.50;79.30;98412.28;5054354;28;20223;-62
2023/01/30 08:07:13;;;;;;;14.23;8.65;;;;;;;3.53;78.93;98413.00;5054269;28;20197;-62
2023/01/30 08:09:39;;;;;;;14.48;8.27;;;;;;;3.81;78.93;98466.41;5053844;28;20205;-62
2023/01/30 08:12:04;;;;;;;12.40;8.18;;;;;;;3.69;79.14;98460.09;5054198;28;20264;-62
2023/01/30 08:14:30;;;;;;;12.77;8.10;;;;;;;3.35;80.19;98392.44;5053856;28;20649;-61
2023/01/30 08:16:56;;;;;;;14.93;9.15;;;;;;;3.80;80.50;98457.91;5054090;28;20260;-62
2023/01/30 08:19:21;;;;;;;13.27;8.00;;;;;;;3.93;79.04;98459.09;5053486;28;20181;-62
2023/01/30 08:21:47;;;;;;;13.63;8.07;;;;;;;3.64;78.71;98413.38;5052771;28;20746;-62
2023/01/30 08:24:12;;;;;;;15.05;9.32;;;;;;;3.99;79.06;98463.94;5053493;28;20182;-62
2023/01/30 08:26:37;;;;;;;14.07;8.45;;;;;;;3.99;78.66;98463.09;5053349;28;20567;-62
2023/01/30 08:29:03;;;;;;;13.35;8.25;;;;;;;3.92;79.19;98457.38;5053452;28;20205;-62
2023/01/30 08:31:28;;;;;;;13.00;8.65;;;;;;;3.84;79.43;98443.28;5053690;28;20667;-62
2023/01/30 08:33:54;;;;;;;10.82;8.05;;;;;;;3.98;79.93;98461.44;5053061;28;20647;-62
2023/01/30 08:36:19;;;;;;;12.85;7.43;;;;;;;3.90;79.03;98456.63;5053646;28;20225;-62
2023/01/30 08:38:44;;;;;;;11.60;7.10;;;;;;;3.86;79.68;98452.53;5053378;28;20173;-61
2023/01/30 08:41:10;;;;;;;12.07;7.97;;;;;;;3.49;79.75;98396.09;5053083;28;20178;-62
2023/01/30 08:43:35;;;;;;;11.73;7.90;;;;;;;3.50;80.14;98391.81;5051275;28;20193;-62
2023/01/30 08:46:01;;;;;;;12.18;7.30;;;;;;;3.52;79.72;98395.97;5051119;28;20293;-62
2023/01/30 08:48:26;;;;;;;14.23;9.13;;;;;;;3.54;80.83;98394.19;5050907;28;20216;-62
2023/01/30 08:50:53;;;;;;;14.38;7.85;;;;;;;3.63;80.75;98409.13;5050867;28;20189;-62
2023/01/30 08:53:20;;;;;;;10.57;7.78;;;;;;;3.90;79.60;98446.41;5050931;28;20190;-62
2023/01/30 08:55:49;;;;;;;11.52;7.32;;;;;;;3.48;79.17;98389.31;5051505;28;20209;-62
2023/01/30 08:58:16;;;;;;;11.73;7.70;;;;;;;3.87;79.80;98450.81;5050721;28;20186;-62
2023/01/30 09:00:43;;;;;;;12.38;7.50;;;;;;;3.86;78.80;98436.34;5050402;28;20182;-62
2023/01/30 09:03:09;;;;;;;10.38;7.38;;;;;;;3.81;78.53;98428.03;5050065;28;20186;-62
2023/01/30 09:05:34;;;;;;;10.32;5.97;;;;;;;3.55;78.09;98390.72;5050593;28;20186;-62
2023/01/30 09:08:00;;;;;;;11.57;6.90;;;;;;;3.78;78.85;98436.66;5051145;28;20198;-62
2023/01/30 09:10:25;;;;;;;13.25;8.15;;;;;;;3.83;77.95;98447.56;5051000;28;20190;-62
2023/01/30 09:12:51;;;;;;;11.02;7.20;;;;;;;3.64;77.98;98415.09;5050493;28;20185;-62
2023/01/30 09:15:16;;;;;;;11.88;7.32;;;;;;;3.19;78.12;98320.63;5052206;28;20185;-62
2023/01/30 09:17:43;;;;;;;9.50;6.95;;;;;;;3.54;77.80;98373.72;5052748;28;20174;-62
2023/01/30 09:20:10;;;;;;;13.55;7.32;;;;;;;3.53;77.40;98361.84;5052615;28;20186;-62
2023/01/30 09:22:36;;;;;;;10.98;7.18;;;;;;;3.86;77.08;98403.91;5052553;28;20192;-62
2023/01/30 09:25:02;;;;;;;11.88;7.38;;;;;;;3.36;76.63;98315.66;5052524;28;20182;-62
2023/01/30 09:27:27;;;;;;;12.27;8.07;;;;;;;3.71;76.36;98360.22;5052560;28;20231;-62
2023/01/30 09:29:52;;;;;;;11.73;6.53;;;;;;;4.02;75.70;98392.13;5052065;28;20671;-62
2023/01/30 09:32:18;;;;;;;11.90;7.40;;;;;;;3.72;74.95;98341.41;5052675;28;20176;-62
2023/01/30 09:34:43;;;;;;;9.73;6.57;;;;;;;3.66;75.77;98342.53;5052110;28;20646;-62
2023/01/30 09:37:09;;;;;;;12.50;7.88;;;;;;;3.79;75.70;98353.88;5052536;28;20228;-62
2023/01/30 09:39:34;;;;;;;11.15;7.18;;;;;;;4.06;77.05;98375.75;5052231;28;20682;-62
2023/01/30 09:42:29;;;;;;;11.45;7.38;;;;;;;4.26;75.34;98388.50;5052399;28;20181;-62
2023/01/30 09:45:27;;;;;;;11.85;7.70;;;;;;;4.32;74.28;98385.69;5052875;28;20178;-62
2023/01/30 09:48:01;;;;;;;11.40;6.60;;;;;;;4.35;74.04;98366.78;5050061;28;20240;-62
2023/01/30 09:50:56;;;;;;;11.35;7.30;;;;;;;4.40;73.97;98357.16;5050047;28;20251;-62
2023/01/30 09:53:30;;;;;;;9.43;6.18;;;;;;;4.44;73.31;98361.25;5010437;28;20203;-62
2023/01/30 09:55:58;;;;;;;12.07;7.35;;;;;;;4.41;72.91;98359.66;5011081;28;20250;-62
2023/01/30 09:58:26;;;;;;;9.40;6.82;;;;;;;4.10;72.31;98310.72;5010352;28;20318;-62
2023/01/30 10:00:59;;;;;;;8.93;5.75;;;;;;;4.30;72.37;98346.50;5010250;28;20183;-62
2023/01/30 10:04:00;;;;;;;16.80;8.82;;;;;;;4.25;72.47;98333.06;5010418;28;20668;-62
2023/01/30 10:06:26;;;;;;;12.65;7.57;;;;;;;4.31;72.69;98337.91;4932817;29;20197;-62
2023/01/30 10:09:24;;;;;;;8.23;6.10;;;;;;;4.41;71.96;98330.66;4932775;29;20597;-62
2023/01/30 10:12:01;;;;;;;11.95;7.25;;;;;;;4.15;72.79;98275.47;4932357;29;20220;-62
2023/01/30 10:14:50;;;;;;;11.80;7.75;;;;;;;4.60;72.20;98318.69;4936104;29;20676;-62
2023/01/30 10:17:27;;;;;;;8.70;7.25;;;;;;;4.68;71.02;98316.59;4937023;29;20197;-62
2023/01/30 10:20:20;;;;;;;9.77;6.22;;;;;;;4.67;70.40;98308.06;4950443;29;20300;-62
2023/01/30 10:22:58;;;;;;;10.90;6.45;;;;;;;4.81;70.37;98303.13;4955598;29;20185;-62
2023/01/30 10:26:25;;;;;;;8.88;6.25;;;;;;;4.90;70.54;98296.75;4955442;29;20220;-62
2023/01/30 10:29:04;;;;;;;11.43;6.97;;;;;;;5.01;69.74;98294.50;4933344;29;20244;-62
2023/01/30 10:31:39;;;;;;;12.77;7.25;;;;;;;4.74;70.63;98240.25;4973686;28;20303;-62
2023/01/30 10:34:17;;;;;;;11.48;7.57;;;;;;;5.12;70.46;98280.25;4974719;28;20246;-62
2023/01/30 10:36:53;;;;;;;11.07;6.47;;;;;;;4.93;69.22;98233.34;4974332;28;20318;-62
2023/01/30 10:39:29;;;;;;;12.68;7.35;;;;;;;5.21;68.45;98266.13;4974333;28;20179;-62
2023/01/30 10:42:28;;;;;;;9.15;6.75;;;;;;;5.26;67.37;98274.44;4981458;28;20309;-62
2023/01/30 10:45:00;;;;;;;9.18;6.05;;;;;;;4.69;65.99;98156.81;4994575;28;20729;-62
2023/01/30 10:47:33;;;;;;;14.88;8.50;;;;;;;5.27;66.39;98258.13;4994389;28;20227;-62
2023/01/30 10:50:14;;;;;;;10.77;7.18;;;;;;;4.87;65.63;98200.31;4993774;28;20309;-62
2023/01/30 10:53:17;;;;;;;9.13;6.15;;;;;;;5.17;65.84;98250.06;4993824;28;20226;-62
2023/01/30 10:55:50;;;;;;;10.23;6.78;;;;;;;4.57;67.32;98142.88;4993878;28;20274;-62
2023/01/30 10:58:26;;;;;;;11.15;7.20;;;;;;;5.18;66.48;98246.59;4994490;28;20554;-62
2023/01/30 11:01:22;;;;;;;13.32;7.28;;;;;;;5.20;67.35;98239.66;4993853;28;20222;-62
2023/01/30 11:04:31;;;;;;;10.30;6.05;;;;;;;5.20;65.58;98231.94;5030843;28;20285;-61
2023/01/30 11:06:59;;;;;;;9.68;6.57;;;;;;;4.98;66.24;98192.94;4993846;28;20211;-62
2023/01/30 11:09:40;;;;;;;10.23;7.07;;;;;;;4.84;67.56;98168.88;4993512;28;20219;-61
2023/01/30 11:12:06;;;;;;;7.93;5.55;;;;;;;4.77;65.17;98144.44;4994267;28;20758;-62
2023/01/30 11:14:50;;;;;;;8.07;5.32;;;;;;;4.88;65.08;98166.09;4993554;28;20279;-61
2023/01/30 11:17:18;;;;;;;7.78;5.68;;;;;;;4.78;66.07;98139.25;5013156;28;20195;-62
2023/01/30 11:19:43;;;;;;;7.70;5.90;;;;;;;5.21;65.64;98195.16;5013108;28;20783;-61
2023/01/30 11:22:13;;;;;;;8.88;6.68;;;;;;;4.84;65.98;98128.69;5012985;28;20191;-62
2023/01/30 11:24:44;;;;;;;9.50;6.57;;;;;;;4.92;64.06;98138.56;5012015;28;20234;-62
2023/01/30 11:27:27;;;;;;;8.48;6.03;;;;;;;5.22;65.61;98188.28;5012808;28;20250;-62
2023/01/30 11:30:02;;;;;;;8.88;6.88;;;;;;;4.78;66.25;98118.75;5013097;28;20223;-62
2023/01/30 11:32:28;;;;;;;7.38;5.40;;;;;;;5.02;64.72;98153.38;5012694;28;20229;-62
2023/01/30 11:35:07;;;;;;;9.30;6.15;;;;;;;4.76;65.14;98105.19;5022043;28;20194;-62
2023/01/30 11:37:36;;;;;;;8.48;6.15;;;;;;;5.05;64.49;98152.41;5040119;28;20294;-61
2023/01/30 11:40:16;;;;;;;10.52;6.93;;;;;;;5.06;64.17;98165.16;5054555;28;20659;-62
2023/01/30 11:42:46;;;;;;;11.05;7.25;;;;;;;5.00;65.29;98150.09;5054492;28;20193;-62
2023/01/30 11:45:12;;;;;;;11.13;7.55;;;;;;;5.10;64.58;98161.53;5054456;28;20319;-62
2023/01/30 11:47:48;;;;;;;10.35;7.43;;;;;;;4.65;64.30;98106.63;5054306;28;20260;-61
2023/01/30 11:50:18;;;;;;;10.70;6.97;;;;;;;4.39;63.39;98105.38;5054698;28;20169;-61